createdAt,value
2019-02-28T00:02:13.318Z,7.20
2019-02-28T00:04:43.649Z,7.00
2019-02-28T00:07:17.564Z,7.10
2019-02-28T00:09:45.819Z,7.10
2019-02-28T00:12:16.205Z,7.20
2019-02-28T00:14:47.026Z,7.00
2019-02-28T00:17:17.426Z,7.10
2019-02-28T00:19:47.801Z,7.20
2019-02-28T00:22:18.495Z,7.10
2019-02-28T00:24:48.890Z,7.20
2019-02-28T00:27:21.936Z,7.00
2019-02-28T00:29:51.606Z,7.00
2019-02-28T00:32:24.786Z,7.00
2019-02-28T00:34:53.744Z,7.00
2019-02-28T00:37:25.675Z,7.10
2019-02-28T00:39:55.925Z,7.20
2019-02-28T00:42:26.113Z,7.10
2019-02-28T00:44:56.445Z,7.40
2019-02-28T00:47:26.757Z,7.40
2019-02-28T00:49:56.995Z,7.40
2019-02-28T00:52:27.252Z,7.30
2019-02-28T00:54:57.927Z,7.50
2019-02-28T00:57:28.617Z,7.30
2019-02-28T00:59:58.890Z,7.40
2019-02-28T01:02:29.107Z,7.40
2019-02-28T01:05:04.317Z,7.40
2019-02-28T01:07:33.156Z,7.40
2019-02-28T01:10:04.618Z,7.40
2019-02-28T01:12:35.788Z,7.20
2019-02-28T01:15:07.132Z,7.10
2019-02-28T01:17:38.899Z,7.40
2019-02-28T01:20:15.008Z,7.50
2019-02-28T01:22:42.126Z,7.40
2019-02-28T01:25:13.164Z,7.60
2019-02-28T01:27:43.804Z,7.50
2019-02-28T01:30:14.612Z,7.40
2019-02-28T01:32:49.739Z,7.10
2019-02-28T01:35:17.148Z,7.20
2019-02-28T01:37:47.815Z,7.10
2019-02-28T01:40:18.044Z,7.20
2019-02-28T01:42:53.952Z,7.10
2019-02-28T01:45:20.501Z,7.10
2019-02-28T01:47:53.804Z,7.10
2019-02-28T01:50:24.256Z,7.20
2019-02-28T01:52:54.514Z,7.00
2019-02-28T01:55:24.754Z,6.80
2019-02-28T01:57:54.980Z,6.70
2019-02-28T02:00:26.893Z,6.90
2019-02-28T02:02:57.138Z,7.20
2019-02-28T02:05:27.754Z,6.80
2019-02-28T02:07:57.960Z,7.20
2019-02-28T02:10:28.587Z,7.10
2019-02-28T02:12:58.754Z,7.10
2019-02-28T02:15:29.334Z,7.00
2019-02-28T02:17:59.602Z,7.00
2019-02-28T02:20:30.305Z,7.00
2019-02-28T02:23:00.576Z,6.90
2019-02-28T02:25:31.149Z,7.20
2019-02-28T02:28:01.441Z,7.10
2019-02-28T02:30:31.609Z,7.20
2019-02-28T02:33:02.247Z,7.00
2019-02-28T02:35:32.495Z,7.00
2019-02-28T02:38:04.602Z,7.10
2019-02-28T02:40:35.085Z,6.70
2019-02-28T02:43:05.293Z,7.10
2019-02-28T02:45:41.677Z,7.20
2019-02-28T02:48:07.544Z,7.10
2019-02-28T02:50:37.820Z,7.10
2019-02-28T02:53:08.061Z,7.10
2019-02-28T02:55:38.354Z,7.20
2019-02-28T02:58:08.629Z,7.00
2019-02-28T03:00:39.201Z,6.90
2019-02-28T03:03:09.812Z,7.00
2019-02-28T03:05:40.083Z,7.00
2019-02-28T03:08:10.415Z,6.80
2019-02-28T03:10:40.923Z,6.90
2019-02-28T03:13:11.492Z,6.90
2019-02-28T03:15:42.158Z,6.60
2019-02-28T03:18:12.459Z,6.60
2019-02-28T03:20:42.768Z,6.40
2019-02-28T03:23:13.702Z,6.60
2019-02-28T03:25:43.964Z,6.80
2019-02-28T03:28:14.225Z,6.70
2019-02-28T03:30:44.805Z,6.70
2019-02-28T03:33:23.423Z,6.70
2019-02-28T03:35:46.917Z,6.60
2019-02-28T03:38:17.228Z,6.40
2019-02-28T03:40:47.487Z,6.70
2019-02-28T03:43:17.712Z,6.40
2019-02-28T03:45:47.979Z,6.60
2019-02-28T03:48:18.676Z,6.60
2019-02-28T03:50:48.935Z,6.50
2019-02-28T03:53:21.108Z,6.40
2019-02-28T03:55:51.866Z,6.60
2019-02-28T03:58:22.097Z,6.30
2019-02-28T04:00:53.153Z,6.10
2019-02-28T04:03:23.420Z,6.40
2019-02-28T04:05:53.625Z,6.30
2019-02-28T04:08:29.340Z,6.40
2019-02-28T04:10:56.170Z,6.30
2019-02-28T04:13:26.453Z,6.30
2019-02-28T04:16:08.389Z,6.20
2019-02-28T04:18:28.611Z,6.10
2019-02-28T04:20:58.889Z,6.40
2019-02-28T04:23:35.496Z,6.10
2019-02-28T04:26:01.364Z,6.20
2019-02-28T04:28:31.573Z,6.40
2019-02-28T04:31:02.150Z,6.60
2019-02-28T04:33:37.643Z,6.50
2019-02-28T04:36:04.619Z,6.20
2019-02-28T04:38:34.864Z,6.60
2019-02-28T04:41:05.138Z,6.20
2019-02-28T04:43:35.389Z,5.90
2019-02-28T04:46:05.945Z,6.10
2019-02-28T04:48:36.157Z,6.20
2019-02-28T04:51:06.793Z,5.90
2019-02-28T04:53:36.993Z,6.30
2019-02-28T04:56:11.037Z,6.40
2019-02-28T04:58:39.191Z,6.30
2019-02-28T05:01:12.276Z,6.30
2019-02-28T05:03:41.304Z,6.40
2019-02-28T05:06:11.541Z,6.00
2019-02-28T05:08:41.769Z,6.10
2019-02-28T05:11:12.681Z,6.50
2019-02-28T05:13:48.207Z,6.70
2019-02-28T05:16:15.024Z,6.70
2019-02-28T05:18:45.528Z,6.60
2019-02-28T05:21:16.596Z,6.40
2019-02-28T05:23:48.055Z,6.50
2019-02-28T05:26:18.343Z,6.80
2019-02-28T05:28:48.920Z,6.40
2019-02-28T05:31:19.134Z,6.60
2019-02-28T05:33:49.753Z,7.00
2019-02-28T05:36:20.039Z,6.80
2019-02-28T05:38:50.271Z,6.90
2019-02-28T05:41:20.581Z,6.80
2019-02-28T05:43:50.886Z,6.90
2019-02-28T05:46:23.814Z,6.90
2019-02-28T05:48:53.072Z,6.80
2019-02-28T05:51:24.907Z,6.90
2019-02-28T05:53:55.211Z,6.90
2019-02-28T05:56:25.522Z,6.50
2019-02-28T05:58:56.168Z,6.20
2019-02-28T06:01:26.430Z,6.50
2019-02-28T06:03:57.239Z,6.50
2019-02-28T06:06:27.494Z,6.20
2019-02-28T06:08:57.756Z,6.60
2019-02-28T06:11:31.402Z,6.40
2019-02-28T06:14:00.240Z,6.60
2019-02-28T06:16:30.473Z,6.50
2019-02-28T06:19:00.852Z,6.30
2019-02-28T06:21:33.348Z,6.50
2019-02-28T06:24:04.162Z,6.20
2019-02-28T06:26:34.581Z,6.00
2019-02-28T06:29:05.801Z,6.30
2019-02-28T06:31:36.460Z,6.40
2019-02-28T06:34:08.614Z,6.40
2019-02-28T06:36:39.211Z,6.40
2019-02-28T06:39:09.840Z,6.30
2019-02-28T06:41:40.813Z,6.40
2019-02-28T06:44:11.290Z,6.20
2019-02-28T06:46:42.033Z,6.30
2019-02-28T06:49:12.697Z,6.50
2019-02-28T06:51:43.062Z,6.00
2019-02-28T06:54:13.385Z,6.50
2019-02-28T06:56:43.723Z,6.60
2019-02-28T06:59:14.109Z,6.30
2019-02-28T07:01:44.831Z,6.40
2019-02-28T07:04:15.331Z,6.80
2019-02-28T07:06:45.687Z,7.30
2019-02-28T07:09:16.599Z,7.40
2019-02-28T07:11:47.031Z,7.40
2019-02-28T07:14:17.359Z,7.30
2019-02-28T07:16:48.061Z,7.40
2019-02-28T07:19:18.357Z,7.10
2019-02-28T07:21:48.639Z,7.40
2019-02-28T07:24:19.235Z,7.20
2019-02-28T07:26:52.318Z,7.10
2019-02-28T07:29:21.829Z,7.50
2019-02-28T07:31:52.161Z,7.50
2019-02-28T07:34:23.981Z,7.40
2019-02-28T07:36:54.391Z,7.10
2019-02-28T07:39:24.674Z,7.10
2019-02-28T07:41:54.966Z,7.10
2019-02-28T07:44:25.234Z,7.10
2019-02-28T07:46:55.957Z,7.40
2019-02-28T07:49:26.554Z,7.70
2019-02-28T07:51:57.207Z,7.70
2019-02-28T07:54:28.562Z,7.80
2019-02-28T07:56:58.932Z,7.70
2019-02-28T07:59:29.682Z,7.90
2019-02-28T08:02:02.966Z,8.00
2019-02-28T08:04:32.040Z,7.90
2019-02-28T08:07:02.373Z,8.00
2019-02-28T08:09:32.840Z,8.30
2019-02-28T08:12:03.575Z,8.60
2019-02-28T08:14:34.099Z,8.50
2019-02-28T08:17:05.437Z,8.60
2019-02-28T08:19:37.042Z,8.80
2019-02-28T08:22:07.486Z,8.90
2019-02-28T08:24:37.821Z,9.00
2019-02-28T08:27:08.451Z,8.90
2019-02-28T08:29:38.727Z,9.40
2019-02-28T08:32:09.414Z,9.50
2019-02-28T08:34:40.109Z,9.50
2019-02-28T08:37:11.154Z,9.50
2019-02-28T08:39:42.166Z,9.90
2019-02-28T08:42:12.960Z,9.80
2019-02-28T08:44:43.348Z,10.00
2019-02-28T08:47:13.730Z,9.90
2019-02-28T08:49:45.513Z,10.20
2019-02-28T08:52:15.980Z,10.00
2019-02-28T08:54:46.398Z,9.80
2019-02-28T08:57:16.784Z,10.00
2019-02-28T08:59:47.638Z,10.00
2019-02-28T09:02:18.988Z,10.20
2019-02-28T09:04:51.024Z,10.10
2019-02-28T09:07:21.582Z,10.10
2019-02-28T09:09:52.003Z,9.90
2019-02-28T09:12:22.417Z,10.00
2019-02-28T09:14:55.344Z,9.90
2019-02-28T09:17:25.131Z,10.30
2019-02-28T09:19:55.638Z,10.00
2019-02-28T09:22:27.449Z,10.50
2019-02-28T09:24:58.084Z,10.50
2019-02-28T09:27:28.672Z,10.80
2019-02-28T09:29:59.394Z,10.50
2019-02-28T09:32:30.065Z,10.80
2019-02-28T09:35:02.514Z,10.70
2019-02-28T09:37:33.044Z,11.00
2019-02-28T09:40:04.079Z,11.10
2019-02-28T09:42:34.494Z,11.40
2019-02-28T09:45:07.621Z,11.40
2019-02-28T09:47:37.109Z,11.50
2019-02-28T09:50:08.975Z,11.60
2019-02-28T09:52:41.703Z,11.60
2019-02-28T09:55:11.742Z,11.70
2019-02-28T09:57:42.609Z,11.70
2019-02-28T10:00:15.761Z,11.70
2019-02-28T10:02:46.721Z,12.10
2019-02-28T10:05:17.079Z,12.40
2019-02-28T10:07:47.767Z,12.80
2019-02-28T10:10:20.867Z,12.90
2019-02-28T10:12:51.993Z,13.20
2019-02-28T10:15:22.983Z,13.30
2019-02-28T10:17:53.610Z,13.70
2019-02-28T10:20:27.093Z,13.70
2019-02-28T10:22:57.960Z,13.80
2019-02-28T10:25:28.666Z,13.80
2019-02-28T10:28:02.582Z,14.10
2019-02-28T10:30:32.705Z,13.70
2019-02-28T10:33:06.095Z,13.70
2019-02-28T10:35:41.188Z,13.60
2019-02-28T10:38:16.899Z,13.40
2019-02-28T10:40:49.283Z,13.10
2019-02-28T10:43:20.878Z,13.00
2019-02-28T10:45:51.777Z,13.20
2019-02-28T10:48:22.242Z,13.00
2019-02-28T10:50:52.660Z,12.90
2019-02-28T10:53:23.075Z,13.20
2019-02-28T10:55:54.351Z,12.80
2019-02-28T10:58:25.666Z,12.70
2019-02-28T11:00:56.093Z,12.70
2019-02-28T11:03:31.813Z,12.90
2019-02-28T11:05:58.808Z,13.10
2019-02-28T11:08:29.454Z,13.60
2019-02-28T11:11:00.894Z,13.20
2019-02-28T11:13:31.999Z,13.30
2019-02-28T11:16:03.661Z,13.40
2019-02-28T11:18:34.092Z,13.60
2019-02-28T11:21:04.898Z,13.90
2019-02-28T11:23:35.277Z,14.10
2019-02-28T11:26:06.467Z,14.00
2019-02-28T11:28:37.983Z,14.00
2019-02-28T11:31:08.374Z,14.40
2019-02-28T11:33:39.691Z,14.90
2019-02-28T11:36:11.220Z,14.90
2019-02-28T11:38:41.648Z,15.00
2019-02-28T11:41:12.056Z,15.00
2019-02-28T11:43:42.883Z,14.90
2019-02-28T11:46:13.315Z,15.00
2019-02-28T11:48:43.716Z,14.80
2019-02-28T11:51:14.645Z,14.40
2019-02-28T11:53:46.505Z,14.10
2019-02-28T11:56:16.916Z,14.00
2019-02-28T11:58:51.309Z,14.20
2019-02-28T12:01:19.284Z,14.20
2019-02-28T12:03:49.677Z,14.40
2019-02-28T12:06:22.408Z,14.20
2019-02-28T12:08:52.034Z,14.20
2019-02-28T12:11:22.599Z,14.20
2019-02-28T12:13:55.206Z,14.40
2019-02-28T12:16:25.857Z,14.30
2019-02-28T12:18:56.237Z,14.50
2019-02-28T12:21:26.647Z,14.40
2019-02-28T12:23:58.351Z,14.40
2019-02-28T12:26:29.757Z,14.30
2019-02-28T12:29:00.502Z,14.10
2019-02-28T12:31:32.121Z,14.10
2019-02-28T12:34:04.246Z,13.90
2019-02-28T12:36:34.591Z,13.60
2019-02-28T12:39:08.674Z,13.60
2019-02-28T12:41:40.160Z,13.50
2019-02-28T12:44:15.162Z,13.60
2019-02-28T12:46:44.557Z,13.40
2019-02-28T12:49:15.031Z,13.10
2019-02-28T12:51:52.276Z,13.30
2019-02-28T12:54:23.151Z,13.30
2019-02-28T12:56:53.638Z,13.00
2019-02-28T12:59:23.973Z,13.00
2019-02-28T13:01:54.294Z,12.90
2019-02-28T13:04:25.713Z,13.00
2019-02-28T13:06:58.833Z,12.90
2019-02-28T13:09:30.135Z,12.90
2019-02-28T13:12:00.537Z,12.80
2019-02-28T13:14:30.959Z,12.80
2019-02-28T13:17:01.456Z,12.50
2019-02-28T13:19:32.599Z,12.40
2019-02-28T13:22:03.733Z,12.30
2019-02-28T13:24:34.818Z,12.40
2019-02-28T13:27:09.748Z,12.40
2019-02-28T13:29:37.992Z,12.40
2019-02-28T13:32:08.370Z,12.70
2019-02-28T13:34:39.114Z,12.80
2019-02-28T13:37:09.891Z,12.70
2019-02-28T13:39:40.784Z,12.70
2019-02-28T13:42:11.229Z,12.70
2019-02-28T13:44:41.848Z,12.80
2019-02-28T13:47:12.763Z,12.70
2019-02-28T13:49:43.218Z,12.80
2019-02-28T13:52:20.356Z,12.90
2019-02-28T13:54:48.413Z,12.90
2019-02-28T13:57:18.921Z,12.90
2019-02-28T13:59:49.665Z,12.40
2019-02-28T14:02:20.389Z,12.40
2019-02-28T14:04:51.226Z,12.40
2019-02-28T14:07:21.563Z,12.20
2019-02-28T14:09:56.831Z,12.40
2019-02-28T14:12:24.664Z,12.30
2019-02-28T14:14:55.180Z,12.40
2019-02-28T14:17:25.825Z,12.20
2019-02-28T14:19:56.130Z,12.20
2019-02-28T14:22:26.459Z,12.50
2019-02-28T14:24:56.892Z,12.60
2019-02-28T14:27:27.284Z,12.60
2019-02-28T14:29:58.062Z,12.50
2019-02-28T14:32:28.500Z,12.50
2019-02-28T14:34:59.935Z,12.30
2019-02-28T14:37:31.009Z,12.30
2019-02-28T14:40:02.061Z,12.30
2019-02-28T14:42:32.331Z,12.50
2019-02-28T14:45:03.995Z,12.30
2019-02-28T14:47:34.847Z,12.50
2019-02-28T14:50:06.387Z,12.40
2019-02-28T14:52:39.399Z,12.60
2019-02-28T14:55:10.958Z,12.90
2019-02-28T14:57:42.234Z,12.60
2019-02-28T15:00:25.249Z,12.70
2019-02-28T15:02:59.499Z,12.80
2019-02-28T15:05:28.926Z,12.80
2019-02-28T15:08:00.435Z,12.70
2019-02-28T15:10:34.286Z,12.90
2019-02-28T15:13:04.803Z,12.80
2019-02-28T15:15:36.308Z,12.80
2019-02-28T15:18:10.895Z,12.90
2019-02-28T15:20:39.488Z,12.80
2019-02-28T15:23:09.936Z,12.70
2019-02-28T15:25:40.324Z,12.40
2019-02-28T15:28:13.826Z,12.10
2019-02-28T15:30:44.891Z,11.80
2019-02-28T15:33:15.809Z,11.70
2019-02-28T15:35:49.540Z,11.60
2019-02-28T15:38:18.714Z,11.70
2019-02-28T15:40:50.974Z,11.40
2019-02-28T15:43:21.374Z,11.30
2019-02-28T15:45:52.052Z,11.40
2019-02-28T15:48:22.713Z,11.40
2019-02-28T15:50:54.020Z,11.40
2019-02-28T15:53:24.469Z,11.60
2019-02-28T15:55:55.269Z,11.10
2019-02-28T15:58:25.671Z,11.50
2019-02-28T16:00:56.585Z,11.40
2019-02-28T16:03:28.187Z,11.40
2019-02-28T16:05:58.554Z,11.30
2019-02-28T16:08:29.004Z,11.20
2019-02-28T16:10:59.628Z,11.50
2019-02-28T16:13:30.488Z,11.50
2019-02-28T16:16:01.223Z,11.40
2019-02-28T16:18:31.938Z,11.40
2019-02-28T16:21:03.596Z,11.40
2019-02-28T16:23:34.757Z,11.30
2019-02-28T16:26:05.641Z,11.40
2019-02-28T16:28:36.270Z,11.30
2019-02-28T16:31:07.545Z,11.40
2019-02-28T16:33:38.012Z,11.10
2019-02-28T16:36:08.629Z,11.20
2019-02-28T16:38:38.947Z,11.50
2019-02-28T16:41:09.423Z,11.50
2019-02-28T16:43:52.350Z,11.50
2019-02-28T16:46:21.544Z,11.40
2019-02-28T16:48:52.798Z,11.30
2019-02-28T16:51:23.277Z,11.40
2019-02-28T16:53:53.639Z,11.50
2019-02-28T16:56:24.142Z,11.20
2019-02-28T16:58:57.283Z,11.10
2019-02-28T17:01:26.911Z,11.10
2019-02-28T17:03:57.980Z,11.10
2019-02-28T17:06:28.609Z,11.20
2019-02-28T17:09:13.231Z,11.40
2019-02-28T17:11:52.357Z,11.00
2019-02-28T17:14:23.055Z,11.30
2019-02-28T17:17:15.458Z,11.40
2019-02-28T17:19:45.807Z,11.40
2019-02-28T17:22:16.576Z,11.40
2019-02-28T17:24:47.001Z,11.30
2019-02-28T17:27:41.390Z,11.20
2019-02-28T17:30:19.536Z,11.40
2019-02-28T17:32:49.806Z,10.90
2019-02-28T17:35:20.222Z,11.30
2019-02-28T17:37:50.496Z,11.40
2019-02-28T17:40:23.144Z,11.10
2019-02-28T17:42:52.854Z,11.30
2019-02-28T17:45:32.058Z,11.00
2019-02-28T17:48:37.283Z,11.00
2019-02-28T17:51:28.311Z,11.20
2019-02-28T17:54:49.147Z,11.30
2019-02-28T17:57:58.659Z,11.00
2019-02-28T18:00:59.214Z,11.10
2019-02-28T18:04:04.615Z,11.10
2019-02-28T18:07:14.958Z,10.90
2019-02-28T18:10:31.990Z,11.10
2019-02-28T18:13:38.582Z,10.80
2019-02-28T18:16:37.491Z,10.80
2019-02-28T18:19:51.073Z,11.10
2019-02-28T18:25:29.618Z,11.30
2019-02-28T18:28:30.801Z,11.10
2019-02-28T18:31:14.751Z,11.40
2019-02-28T18:33:47.506Z,11.30
2019-02-28T18:36:19.692Z,11.10
2019-02-28T18:38:50.373Z,11.00
2019-02-28T18:41:21.327Z,11.10
2019-02-28T18:43:51.610Z,11.10
2019-02-28T18:46:21.904Z,10.80
2019-02-28T18:48:54.333Z,10.80
2019-02-28T18:51:24.929Z,11.10
2019-02-28T18:53:55.599Z,10.70
2019-02-28T18:56:25.825Z,10.70
2019-02-28T18:58:56.096Z,10.60
2019-02-28T19:01:26.693Z,11.10
2019-02-28T19:03:56.978Z,10.90
2019-02-28T19:06:27.346Z,11.00
2019-02-28T19:08:57.647Z,11.00
2019-02-28T19:11:28.035Z,11.00
2019-02-28T19:13:58.255Z,11.00
2019-02-28T19:16:28.880Z,10.80
2019-02-28T19:18:59.146Z,11.00
2019-02-28T19:21:29.677Z,11.00
2019-02-28T19:24:00.014Z,11.00
2019-02-28T19:26:30.230Z,10.90
2019-02-28T19:29:00.511Z,11.10
2019-02-28T19:31:30.741Z,11.00
2019-02-28T19:34:00.978Z,11.00
2019-02-28T19:36:31.183Z,10.80
2019-02-28T19:39:01.450Z,11.10
2019-02-28T19:41:32.458Z,11.00
2019-02-28T19:44:04.020Z,10.90
2019-02-28T19:46:34.295Z,11.00
2019-02-28T19:49:04.614Z,10.70
2019-02-28T19:51:34.891Z,10.70
2019-02-28T19:54:05.179Z,10.60
2019-02-28T19:56:36.276Z,10.70
2019-02-28T19:59:06.632Z,10.50
2019-02-28T20:01:36.988Z,11.00
2019-02-28T20:04:07.284Z,10.80
2019-02-28T20:06:37.695Z,10.80
2019-02-28T20:09:09.083Z,10.70
2019-02-28T20:11:39.809Z,10.60
2019-02-28T20:14:10.092Z,10.50
2019-02-28T20:16:40.564Z,10.60
2019-02-28T20:19:10.847Z,10.40
2019-02-28T20:21:41.165Z,10.60
2019-02-28T20:24:11.451Z,10.50
2019-02-28T20:26:41.743Z,10.50
2019-02-28T20:29:12.714Z,10.70
2019-02-28T20:31:43.013Z,10.60
2019-02-28T20:34:13.349Z,10.50
2019-02-28T20:36:43.669Z,10.80
2019-02-28T20:39:14.297Z,10.70
2019-02-28T20:41:44.580Z,10.80
2019-02-28T20:44:14.887Z,10.80
2019-02-28T20:46:45.603Z,10.60
2019-02-28T20:49:15.884Z,10.30
2019-02-28T20:51:54.886Z,10.50
2019-02-28T20:54:18.084Z,10.20
2019-02-28T20:56:48.289Z,10.30
2019-02-28T20:59:18.669Z,10.00
2019-02-28T21:01:48.983Z,10.10
2019-02-28T21:04:19.243Z,10.20
2019-02-28T21:06:49.527Z,10.50
2019-02-28T21:09:19.915Z,10.40
2019-02-28T21:11:50.122Z,10.00
2019-02-28T21:14:20.782Z,9.90
2019-02-28T21:16:51.684Z,10.00
2019-02-28T21:19:21.949Z,10.10
2019-02-28T21:21:52.223Z,10.10
2019-02-28T21:24:22.777Z,9.90
2019-02-28T21:26:53.457Z,9.80
2019-02-28T21:29:23.746Z,9.90
2019-02-28T21:31:54.090Z,10.10
2019-02-28T21:34:24.335Z,10.00
2019-02-28T21:36:54.666Z,10.00
2019-02-28T21:39:26.076Z,10.20
2019-02-28T21:41:56.409Z,10.20
2019-02-28T21:44:26.655Z,10.00
2019-02-28T21:46:56.901Z,9.90
2019-02-28T21:49:27.238Z,10.20
2019-02-28T21:51:57.535Z,10.00
2019-02-28T21:54:27.828Z,9.90
2019-02-28T21:56:58.049Z,9.80
2019-02-28T21:59:28.336Z,9.80
2019-02-28T22:01:58.871Z,9.80
2019-02-28T22:04:29.195Z,10.00
2019-02-28T22:06:59.458Z,9.60
2019-02-28T22:09:29.992Z,9.80
2019-02-28T22:12:00.239Z,9.90
2019-02-28T22:14:30.445Z,9.60
2019-02-28T22:17:00.995Z,9.90
2019-02-28T22:19:31.996Z,10.00
2019-02-28T22:22:02.223Z,9.70
2019-02-28T22:24:32.488Z,9.60
2019-02-28T22:27:03.130Z,10.00
2019-02-28T22:29:33.705Z,9.90
2019-02-28T22:32:32.347Z,9.80
2019-02-28T22:35:22.727Z,9.90
2019-02-28T22:37:53.670Z,10.00
2019-02-28T22:40:24.612Z,10.00
2019-02-28T22:42:54.837Z,9.90
2019-02-28T22:45:25.089Z,10.10
2019-02-28T22:47:55.331Z,9.90
2019-02-28T22:50:25.538Z,9.80
2019-02-28T22:52:56.453Z,9.80
2019-02-28T22:55:27.645Z,10.00
2019-02-28T22:57:58.607Z,9.80
2019-02-28T23:00:46.976Z,9.90
2019-02-28T23:03:17.202Z,9.80
2019-02-28T23:05:47.451Z,9.60
2019-02-28T23:08:17.672Z,9.90
2019-02-28T23:10:47.797Z,9.80
2019-02-28T23:13:17.934Z,9.60
2019-02-28T23:15:48.187Z,9.60
2019-02-28T23:18:18.349Z,9.80
2019-02-28T23:20:48.605Z,9.60
2019-02-28T23:23:18.828Z,10.00
2019-02-28T23:25:49.528Z,9.70
2019-02-28T23:28:34.013Z,9.80
2019-02-28T23:31:44.847Z,9.70
2019-02-28T23:34:23.373Z,9.70
2019-02-28T23:36:53.652Z,9.80
2019-02-28T23:39:23.918Z,9.70
2019-02-28T23:41:54.211Z,9.60
2019-02-28T23:44:24.357Z,9.70
2019-02-28T23:46:54.606Z,9.80
2019-02-28T23:49:25.138Z,9.60
2019-02-28T23:51:55.368Z,9.80
2019-02-28T23:54:25.492Z,9.50
2019-02-28T23:56:55.651Z,9.60
2019-02-28T23:59:26.408Z,9.50
